Time;durP1;ratioP1;P1;durP2;ratioP2;P2;SDS_P1;SDS_P2;PMS_P1;PMS_P2;Temp;Humidity;BMP_temperature;BMP_pressure;BME280_temperature;BME280_humidity;BME280_pressure;Samples;Min_cycle;Max_cycle;Signal;HPM_P1;HPM_P2
2023/05/19 00:00:16;;;;;;;4.15;2.20;;;;;;;11.71;86.03;99089.91;2604778;28;20087;-88
2023/05/19 00:01:53;;;;;;;5.60;2.60;;;;;;;11.73;87.31;99085.50;2610192;28;20045;-88
2023/05/19 00:03:11;;;;;;;5.97;2.38;;;;;;;11.78;87.60;99089.78;2613225;28;20079;-88
2023/05/19 00:04:27;;;;;;;7.63;2.90;;;;;;;11.69;87.92;99085.59;2615878;28;20625;-88
2023/05/19 00:05:44;;;;;;;7.97;3.33;;;;;;;11.73;88.19;99082.00;2616078;28;20048;-88
2023/05/19 00:07:02;;;;;;;4.88;2.55;;;;;;;11.73;91.29;99080.25;2612978;28;20423;-88
2023/05/19 00:08:19;;;;;;;5.68;2.40;;;;;;;11.72;91.34;99075.88;2616372;28;20526;-88
2023/05/19 00:09:34;;;;;;;6.03;2.47;;;;;;;11.76;89.93;99088.94;2615698;28;20507;-88
2023/05/19 00:10:50;;;;;;;4.00;2.63;;;;;;;11.60;93.63;99084.03;2604508;28;20056;-88
2023/05/19 00:12:06;;;;;;;6.03;2.30;;;;;;;11.63;94.34;99091.84;2608247;28;20515;-88
2023/05/19 00:13:22;;;;;;;5.78;2.20;;;;;;;11.58;94.45;99088.44;2609248;28;20045;-88
2023/05/19 00:14:38;;;;;;;3.72;2.17;;;;;;;11.51;95.22;99089.47;2613306;28;20052;-87
2023/05/19 00:15:54;;;;;;;5.07;2.45;;;;;;;11.52;99.10;99084.19;2614228;28;20100;-87
2023/05/19 00:17:10;;;;;;;5.43;2.28;;;;;;;11.66;93.79;99094.38;2612339;28;20408;-87
2023/05/19 00:18:25;;;;;;;5.22;2.17;;;;;;;11.58;94.84;99086.69;2615079;28;20045;-87
2023/05/19 00:19:41;;;;;;;4.13;2.25;;;;;;;11.58;98.80;99085.81;2613586;28;20053;-88
2023/05/19 00:20:57;;;;;;;3.42;2.33;;;;;;;11.43;100.00;99084.41;2603507;28;20099;-87
2023/05/19 00:22:13;;;;;;;5.82;2.65;;;;;;;11.57;100.00;99091.97;2606212;28;20044;-87
2023/05/19 00:23:29;;;;;;;7.18;2.83;;;;;;;11.52;100.00;99081.56;2615447;28;20584;-87
2023/05/19 00:24:44;;;;;;;6.13;2.85;;;;;;;11.48;100.00;99084.31;2613107;28;20061;-87
2023/05/19 00:26:00;;;;;;;5.95;2.78;;;;;;;11.59;98.83;99082.28;2613107;28;20052;-87
2023/05/19 00:27:15;;;;;;;7.38;2.97;;;;;;;11.62;98.08;99077.00;2614943;28;20041;-87
2023/05/19 00:28:31;;;;;;;4.78;2.95;;;;;;;11.63;97.82;99077.84;2613420;28;20389;-87
2023/05/19 00:29:47;;;;;;;5.40;2.80;;;;;;;11.62;95.19;99069.13;2616103;28;20167;-87
2023/05/19 00:31:05;;;;;;;5.40;3.05;;;;;;;11.57;97.12;99073.59;2614911;28;20044;-87
2023/05/19 00:32:21;;;;;;;5.65;3.00;;;;;;;11.58;98.49;99077.94;2613397;28;20053;-87
2023/05/19 00:33:37;;;;;;;4.53;2.97;;;;;;;11.62;99.32;99074.38;2614289;28;20513;-87
2023/05/19 00:34:52;;;;;;;5.50;2.55;;;;;;;11.54;99.60;99074.56;2613389;28;20048;-87
2023/05/19 00:36:07;;;;;;;6.63;2.90;;;;;;;11.46;100.00;99075.63;2575830;28;1102324;-87
2023/05/19 00:37:23;;;;;;;4.85;2.75;;;;;;;11.54;100.00;99071.06;2616299;28;20538;-88
2023/05/19 00:38:39;;;;;;;7.75;2.90;;;;;;;11.59;100.00;99071.81;2613928;28;20041;-87
2023/05/19 00:39:54;;;;;;;8.88;3.22;;;;;;;11.59;100.00;99077.03;2615049;28;20087;-86
2023/05/19 00:41:10;;;;;;;5.43;3.42;;;;;;;11.59;100.00;99079.66;2613974;28;20048;-88
2023/05/19 00:42:26;;;;;;;5.65;2.80;;;;;;;11.54;100.00;99078.91;2615105;28;20052;-87
2023/05/19 00:43:41;;;;;;;6.35;2.97;;;;;;;11.52;100.00;99076.31;2614586;28;20060;-87
2023/05/19 00:44:57;;;;;;;6.65;2.80;;;;;;;11.46;100.00;99073.84;2609463;28;20557;-88
2023/05/19 00:46:13;;;;;;;4.55;2.55;;;;;;;11.53;100.00;99066.69;2615615;28;20056;-87
2023/05/19 00:47:28;;;;;;;5.85;2.50;;;;;;;11.45;100.00;99079.97;2612703;28;20526;-87
2023/05/19 00:48:44;;;;;;;4.78;2.60;;;;;;;11.53;100.00;99071.94;2614652;28;20613;-87
2023/05/19 00:49:59;;;;;;;7.10;3.05;;;;;;;11.52;100.00;99075.47;2615204;28;20049;-87
2023/05/19 00:51:16;;;;;;;5.28;3.00;;;;;;;11.49;100.00;99071.16;2613288;28;20077;-87
2023/05/19 00:52:31;;;;;;;7.72;3.33;;;;;;;11.51;100.00;99068.50;2615420;28;20545;-87
2023/05/19 00:53:49;;;;;;;5.63;2.80;;;;;;;11.48;100.00;99068.56;2614796;28;20041;-87
2023/05/19 00:55:06;;;;;;;7.68;2.90;;;;;;;11.44;100.00;99068.63;2615121;28;20049;-88
2023/05/19 00:56:22;;;;;;;10.48;3.38;;;;;;;11.34;100.00;99066.22;2614570;28;20060;-88
2023/05/19 00:57:38;;;;;;;8.10;2.80;;;;;;;11.32;100.00;99068.03;2614222;28;20052;-87
2023/05/19 00:58:53;;;;;;;8.70;3.30;;;;;;;11.30;100.00;99070.66;2603647;28;20402;-87
2023/05/19 01:00:10;;;;;;;5.40;3.17;;;;;;;11.32;100.00;99066.28;2607625;28;20055;-87
2023/05/19 01:01:26;;;;;;;7.00;3.17;;;;;;;11.30;100.00;99062.81;2604030;28;20455;-87
2023/05/19 01:02:42;;;;;;;9.52;3.47;;;;;;;11.43;100.00;99058.19;2606594;28;20064;-88
2023/05/19 01:03:58;;;;;;;5.22;2.78;;;;;;;11.08;100.00;99063.25;2614088;28;20611;-87
2023/05/19 01:05:13;;;;;;;6.75;2.80;;;;;;;11.19;100.00;99065.66;2612909;28;20130;-87
2023/05/19 01:06:29;;;;;;;6.32;2.70;;;;;;;11.00;100.00;99065.16;2615455;28;20114;-87
2023/05/19 01:07:46;;;;;;;7.28;2.97;;;;;;;10.70;100.00;99059.63;2616021;28;20040;-87
2023/05/19 01:09:01;;;;;;;5.15;2.55;;;;;;;10.63;100.00;99060.63;2613921;28;20049;-87
2023/05/19 01:10:17;;;;;;;5.63;2.80;;;;;;;10.71;100.00;99054.38;2608998;28;20047;-87
2023/05/19 01:11:32;;;;;;;5.18;2.75;;;;;;;10.60;100.00;99054.53;2614215;28;20174;-87
2023/05/19 01:12:48;;;;;;;8.60;3.05;;;;;;;10.81;100.00;99062.91;2612042;28;20123;-87
2023/05/19 01:14:04;;;;;;;6.03;2.92;;;;;;;10.96;100.00;99058.25;2612471;28;20530;-86
2023/05/19 01:15:19;;;;;;;5.95;2.78;;;;;;;10.98;100.00;99053.84;2614227;28;20053;-87
2023/05/19 01:16:41;;;;;;;8.57;3.30;;;;;;;10.80;100.00;99061.19;2613068;28;20040;-87
2023/05/19 01:18:07;;;;;;;8.67;3.57;;;;;;;10.83;100.00;99061.13;2602777;28;20076;-86
2023/05/19 01:19:41;;;;;;;6.47;3.20;;;;;;;10.85;100.00;99061.94;2608692;28;20053;-87
2023/05/19 01:21:36;;;;;;;5.82;2.80;;;;;;;11.17;100.00;99059.59;2613182;28;20071;-87
2023/05/19 01:23:16;;;;;;;5.40;2.72;;;;;;;11.15;100.00;99056.13;2612526;28;20072;-87
2023/05/19 01:24:39;;;;;;;5.00;2.65;;;;;;;11.16;100.00;99056.09;2614241;28;20040;-87
2023/05/19 01:25:55;;;;;;;5.18;2.50;;;;;;;11.27;100.00;99060.25;2615360;28;20098;-86
2023/05/19 01:27:40;;;;;;;4.63;2.75;;;;;;;11.24;100.00;99057.69;2614147;28;20049;-87
2023/05/19 01:29:11;;;;;;;4.28;2.78;;;;;;;11.24;100.00;99060.31;2614522;28;20067;-86
2023/05/19 01:30:32;;;;;;;4.50;2.58;;;;;;;11.22;100.00;99060.34;2608452;28;20041;-87
2023/05/19 01:31:49;;;;;;;9.63;3.08;;;;;;;11.19;100.00;99059.56;2612675;28;20045;-87
2023/05/19 01:33:07;;;;;;;5.60;2.70;;;;;;;11.29;100.00;99059.34;2615571;28;20044;-87
2023/05/19 01:34:26;;;;;;;6.28;3.10;;;;;;;11.23;100.00;99059.44;2615582;28;20067;-87
2023/05/19 01:35:43;;;;;;;6.95;2.90;;;;;;;11.26;100.00;99055.91;2603691;28;20041;-87
2023/05/19 01:37:00;;;;;;;5.32;2.80;;;;;;;11.25;100.00;99056.81;2607774;28;20537;-87
2023/05/19 01:38:17;;;;;;;4.53;2.75;;;;;;;11.06;100.00;99058.94;2612844;28;20072;-87
2023/05/19 01:39:34;;;;;;;4.60;2.67;;;;;;;11.21;100.00;99055.16;2601907;28;20045;-86
2023/05/19 01:40:51;;;;;;;10.27;3.20;;;;;;;11.23;100.00;99053.34;2608210;28;20049;-87
2023/05/19 01:42:07;;;;;;;6.72;3.20;;;;;;;11.24;100.00;99053.31;2613667;28;20144;-87
2023/05/19 01:43:25;;;;;;;5.20;2.78;;;;;;;11.13;100.00;99050.91;2615486;28;20070;-87
2023/05/19 01:44:41;;;;;;;5.03;2.83;;;;;;;11.06;100.00;99057.19;2614483;28;20057;-87
2023/05/19 01:45:57;;;;;;;4.75;2.88;;;;;;;11.13;100.00;99055.31;2615191;28;20045;-87
2023/05/19 01:47:13;;;;;;;5.63;2.80;;;;;;;11.13;100.00;99053.53;2613791;28;20123;-87
2023/05/19 01:48:29;;;;;;;8.35;3.22;;;;;;;11.07;100.00;99050.19;2612209;28;20053;-87
2023/05/19 01:49:45;;;;;;;5.20;2.60;;;;;;;11.09;100.00;99048.38;2613083;28;20114;-88
2023/05/19 01:51:00;;;;;;;4.63;2.97;;;;;;;11.02;100.00;99050.25;2615643;28;20055;-87
2023/05/19 01:52:16;;;;;;;5.38;2.92;;;;;;;11.04;100.00;99052.88;2613556;28;20052;-87
2023/05/19 01:53:32;;;;;;;6.38;2.92;;;;;;;11.14;100.00;99057.88;2614239;28;20212;-87
2023/05/19 01:54:47;;;;;;;6.90;3.08;;;;;;;11.08;100.00;99055.41;2614718;28;20056;-87
2023/05/19 01:56:04;;;;;;;5.20;2.83;;;;;;;11.08;100.00;99058.03;2611175;28;20040;-87
2023/05/19 01:57:39;;;;;;;6.45;2.90;;;;;;;10.93;100.00;99051.31;2613943;28;20492;-86
2023/05/19 01:59:03;;;;;;;5.57;2.70;;;;;;;11.02;100.00;99051.13;2603770;28;20503;-87
2023/05/19 02:00:41;;;;;;;4.45;2.50;;;;;;;10.94;100.00;99050.41;2607754;28;20049;-87
2023/05/19 02:02:00;;;;;;;4.85;2.47;;;;;;;10.71;100.00;99045.63;2610454;28;20075;-87
2023/05/19 02:03:31;;;;;;;4.13;2.60;;;;;;;10.81;100.00;99041.94;2602723;28;20707;-87
2023/05/19 02:05:01;;;;;;;4.28;2.60;;;;;;;10.56;100.00;99036.31;2608468;28;20577;-87
2023/05/19 02:06:28;;;;;;;5.82;2.45;;;;;;;10.67;100.00;99036.13;2613043;28;20048;-87
2023/05/19 02:07:57;;;;;;;5.25;2.97;;;;;;;10.81;100.00;99031.47;2612808;28;20484;-87
2023/05/19 02:09:28;;;;;;;4.45;3.03;;;;;;;10.72;100.00;99034.25;2613647;28;20052;-87
2023/05/19 02:10:50;;;;;;;11.25;3.58;;;;;;;10.73;100.00;99031.63;2612173;28;20110;-87
2023/05/19 02:12:27;;;;;;;9.48;3.20;;;;;;;10.66;100.00;99030.00;2613008;28;20049;-87
2023/05/19 02:13:45;;;;;;;5.10;2.88;;;;;;;10.46;100.00;99030.38;2615220;28;20044;-87
2023/05/19 02:15:10;;;;;;;5.15;2.65;;;;;;;10.55;100.00;99030.22;2613334;28;20049;-87
2023/05/19 02:16:27;;;;;;;4.72;2.83;;;;;;;10.45;100.00;99029.50;2613077;28;20135;-88
2023/05/19 02:17:49;;;;;;;6.22;3.05;;;;;;;10.45;100.00;99031.25;2612270;28;20068;-87
2023/05/19 02:19:05;;;;;;;4.75;2.88;;;;;;;10.30;100.00;99041.06;2601351;28;20069;-87
2023/05/19 02:20:23;;;;;;;6.82;3.33;;;;;;;10.45;100.00;99036.50;2605682;28;20056;-87
2023/05/19 02:21:38;;;;;;;10.63;2.80;;;;;;;10.48;100.00;99039.06;2612973;28;20152;-87
2023/05/19 02:22:55;;;;;;;5.90;2.90;;;;;;;10.49;100.00;99040.81;2603501;28;20567;-87
2023/05/19 02:24:10;;;;;;;5.60;2.88;;;;;;;10.51;100.00;99033.78;2608543;28;20040;-87
2023/05/19 02:25:26;;;;;;;4.80;2.90;;;;;;;10.52;100.00;99037.25;2615202;28;20055;-87
2023/05/19 02:26:41;;;;;;;6.60;2.83;;;;;;;10.44;100.00;99032.16;2614244;28;20120;-87
2023/05/19 02:27:58;;;;;;;3.67;2.75;;;;;;;10.38;100.00;99037.47;2615379;28;20104;-87
2023/05/19 02:29:13;;;;;;;4.22;2.65;;;;;;;10.36;100.00;99028.78;2615163;28;20056;-87
2023/05/19 02:30:30;;;;;;;5.60;2.55;;;;;;;10.36;100.00;99028.78;2613430;28;20060;-87
2023/05/19 02:31:46;;;;;;;5.88;2.95;;;;;;;10.27;100.00;99035.91;2614168;28;20050;-87
2023/05/19 02:33:05;;;;;;;5.60;2.80;;;;;;;10.24;100.00;99029.84;2612242;28;20083;-87
2023/05/19 02:34:20;;;;;;;10.35;3.67;;;;;;;10.23;100.00;99033.34;2612094;28;20048;-87
2023/05/19 02:35:36;;;;;;;4.55;2.40;;;;;;;10.16;100.00;99028.25;2614121;28;20040;-87
2023/05/19 02:36:52;;;;;;;4.30;2.75;;;;;;;10.12;100.00;99026.53;2613000;28;20051;-87
2023/05/19 02:38:08;;;;;;;4.57;2.63;;;;;;;10.15;100.00;99029.13;2613089;28;20052;-87
2023/05/19 02:39:23;;;;;;;4.15;2.55;;;;;;;10.13;100.00;99025.69;2614678;28;20123;-87
2023/05/19 02:40:39;;;;;;;5.50;2.70;;;;;;;10.03;100.00;99024.09;2612566;28;20048;-87
2023/05/19 02:41:54;;;;;;;4.15;2.72;;;;;;;10.03;100.00;99030.19;2613400;28;20036;-87
2023/05/19 02:43:10;;;;;;;4.60;2.60;;;;;;;10.01;100.00;99029.34;2608291;28;20357;-87
2023/05/19 02:44:26;;;;;;;5.40;2.45;;;;;;;9.74;100.00;99020.19;2612269;28;20153;-87
2023/05/19 02:45:41;;;;;;;4.80;2.67;;;;;;;9.71;100.00;99020.25;2603544;28;20053;-87
2023/05/19 02:46:57;;;;;;;8.07;2.90;;;;;;;9.69;100.00;99020.25;2606456;28;20036;-87
2023/05/19 02:48:12;;;;;;;6.47;2.90;;;;;;;9.59;100.00;99026.50;2613831;28;20216;-87
2023/05/19 02:49:34;;;;;;;7.68;2.90;;;;;;;9.58;100.00;99024.78;2614193;28;20431;-87
2023/05/19 02:50:50;;;;;;;4.60;2.28;;;;;;;9.69;100.00;99016.78;2602830;28;20045;-87
2023/05/19 02:52:06;;;;;;;4.78;2.92;;;;;;;9.68;100.00;99029.00;2607599;28;20414;-87
2023/05/19 02:53:21;;;;;;;3.83;2.60;;;;;;;9.66;100.00;99028.16;2612563;28;20040;-87
2023/05/19 02:54:37;;;;;;;5.22;2.97;;;;;;;9.66;100.00;99028.16;2612869;28;20045;-87
2023/05/19 02:55:52;;;;;;;3.60;2.55;;;;;;;9.59;100.00;99027.38;2601713;28;20045;-87
2023/05/19 02:57:09;;;;;;;5.72;2.67;;;;;;;9.52;100.00;99032.72;2602149;28;20072;-87
2023/05/19 02:58:25;;;;;;;6.32;2.60;;;;;;;9.51;100.00;99026.63;2606978;28;20037;-87
2023/05/19 02:59:41;;;;;;;4.63;2.47;;;;;;;9.52;100.00;99032.72;2614013;28;20044;-88
2023/05/19 03:00:57;;;;;;;4.25;2.80;;;;;;;9.54;100.00;99013.50;2614121;28;20131;-88
2023/05/19 03:02:12;;;;;;;4.60;2.55;;;;;;;9.42;100.00;99021.50;2614008;28;20049;-87
2023/05/19 03:03:28;;;;;;;6.57;2.90;;;;;;;9.38;100.00;99023.31;2611500;28;20055;-87
2023/05/19 03:04:44;;;;;;;5.82;2.85;;;;;;;9.40;100.00;99023.28;2614927;28;20326;-87
2023/05/19 03:06:00;;;;;;;3.88;2.60;;;;;;;9.34;100.00;99024.22;2613013;28;20056;-89
2023/05/19 03:07:16;;;;;;;7.00;3.10;;;;;;;9.25;100.00;99021.75;2614121;28;20127;-87
2023/05/19 03:08:32;;;;;;;6.00;3.00;;;;;;;9.31;100.00;99019.06;2608316;28;20041;-87
2023/05/19 03:09:47;;;;;;;3.80;2.40;;;;;;;9.26;100.00;99023.47;2601104;28;20049;-88
2023/05/19 03:11:03;;;;;;;4.07;2.67;;;;;;;9.17;100.00;99020.09;2603307;28;20040;-87
2023/05/19 03:12:19;;;;;;;6.93;2.90;;;;;;;9.18;100.00;99031.41;2611072;28;20041;-86
2023/05/19 03:13:35;;;;;;;5.03;2.60;;;;;;;9.17;100.00;99027.09;2612043;28;20183;-87
2023/05/19 03:14:51;;;;;;;5.65;2.30;;;;;;;9.19;100.00;99030.53;2611449;28;20107;-87
2023/05/19 03:16:06;;;;;;;5.35;3.10;;;;;;;9.08;100.00;99025.47;2613935;28;20048;-86
2023/05/19 03:17:22;;;;;;;3.88;2.38;;;;;;;9.13;100.00;99030.59;2613570;28;20045;-87
2023/05/19 03:18:37;;;;;;;5.68;2.78;;;;;;;9.06;100.00;99029.81;2603502;28;20120;-87
2023/05/19 03:19:53;;;;;;;4.03;2.75;;;;;;;9.08;100.00;99029.81;2608109;28;20045;-87
2023/05/19 03:21:09;;;;;;;5.72;2.88;;;;;;;9.07;100.00;99028.06;2613469;28;20045;-87
2023/05/19 03:22:24;;;;;;;7.95;2.85;;;;;;;9.06;100.00;99034.19;2612853;28;20403;-87
2023/05/19 03:23:40;;;;;;;5.10;2.60;;;;;;;8.82;100.00;99033.59;2614676;28;20461;-87
2023/05/19 03:24:57;;;;;;;5.25;2.60;;;;;;;8.72;100.00;99031.06;2601522;28;20052;-87
2023/05/19 03:26:12;;;;;;;4.13;2.70;;;;;;;8.82;100.00;99034.47;2606579;28;20072;-86
2023/05/19 03:27:28;;;;;;;4.85;2.35;;;;;;;8.85;100.00;99023.09;2615021;28;20045;-87
2023/05/19 03:28:44;;;;;;;6.97;2.88;;;;;;;8.81;100.00;99031.84;2614008;28;20044;-87
2023/05/19 03:29:59;;;;;;;4.28;2.45;;;;;;;8.85;100.00;99023.09;2613651;28;20079;-87
2023/05/19 03:31:15;;;;;;;8.52;2.97;;;;;;;8.94;100.00;99023.00;2615968;28;20072;-87
2023/05/19 03:32:31;;;;;;;7.35;2.70;;;;;;;8.91;100.00;99017.81;2614237;28;20048;-89
2023/05/19 03:33:47;;;;;;;4.13;2.47;;;;;;;8.88;100.00;99018.72;2603156;28;20080;-87
2023/05/19 03:35:04;;;;;;;4.07;2.60;;;;;;;8.94;100.00;99020.38;2607749;28;20508;-89
2023/05/19 03:36:20;;;;;;;5.07;2.80;;;;;;;8.93;100.00;99017.78;2614029;28;20060;-87
2023/05/19 03:37:36;;;;;;;3.50;2.58;;;;;;;8.98;100.00;99027.28;2611678;28;20072;-86
2023/05/19 03:38:52;;;;;;;4.43;2.70;;;;;;;8.87;100.00;99023.94;2615300;28;20063;-86
2023/05/19 03:40:08;;;;;;;4.43;2.60;;;;;;;8.86;100.00;99019.59;2613626;28;20033;-86
2023/05/19 03:41:23;;;;;;;8.95;2.83;;;;;;;8.97;100.00;99024.72;2614602;28;20049;-86
2023/05/19 03:42:39;;;;;;;6.65;2.90;;;;;;;8.96;100.00;99025.59;2615390;28;20040;-87
2023/05/19 03:43:54;;;;;;;4.10;2.13;;;;;;;8.88;100.00;99026.53;2614842;28;20389;-86
2023/05/19 03:45:10;;;;;;;3.15;2.30;;;;;;;8.83;100.00;99027.47;2614375;28;20045;-86
2023/05/19 03:46:26;;;;;;;4.15;2.45;;;;;;;8.85;100.00;99028.31;2616626;28;20041;-86
2023/05/19 03:47:41;;;;;;;5.22;2.70;;;;;;;8.74;100.00;99023.22;2615816;28;20048;-86
2023/05/19 03:48:57;;;;;;;4.47;2.28;;;;;;;8.80;100.00;99024.91;2614725;28;20045;-86
2023/05/19 03:50:12;;;;;;;3.80;2.38;;;;;;;8.80;100.00;99030.13;2614165;28;20422;-89
2023/05/19 03:51:28;;;;;;;4.63;2.72;;;;;;;8.76;100.00;99024.06;2615196;28;21031;-86
2023/05/19 03:52:45;;;;;;;4.32;2.25;;;;;;;8.75;100.00;99024.94;2615093;28;20051;-87
2023/05/19 03:54:01;;;;;;;4.20;2.25;;;;;;;8.80;100.00;99024.91;2613606;28;20488;-87
2023/05/19 03:55:18;;;;;;;6.68;2.58;;;;;;;8.86;100.00;99027.44;2613985;28;20067;-87
2023/05/19 03:56:38;;;;;;;5.35;3.05;;;;;;;8.86;100.00;99030.94;2614813;28;20518;-87
2023/05/19 03:57:55;;;;;;;5.50;2.50;;;;;;;8.82;100.00;99031.84;2604141;28;20128;-90
2023/05/19 03:59:11;;;;;;;3.40;2.20;;;;;;;8.72;100.00;99030.22;2608212;28;20500;-89
2023/05/19 04:00:26;;;;;;;5.20;2.97;;;;;;;8.59;100.00;99032.97;2616861;28;20044;-89
2023/05/19 04:01:42;;;;;;;3.90;2.35;;;;;;;8.69;100.00;99032.88;2614321;28;20045;-89
2023/05/19 04:02:58;;;;;;;5.28;2.50;;;;;;;8.70;100.00;99037.19;2603888;28;20045;-88
2023/05/19 04:04:14;;;;;;;4.32;2.40;;;;;;;8.80;100.00;99041.44;2598323;28;20459;-88
2023/05/19 04:05:30;;;;;;;5.43;2.63;;;;;;;8.81;100.00;99037.06;2598092;28;20073;-87
2023/05/19 04:06:45;;;;;;;5.10;2.90;;;;;;;8.82;100.00;99039.69;2609762;28;20040;-88
2023/05/19 04:08:01;;;;;;;4.07;2.65;;;;;;;8.77;100.00;99044.06;2614241;28;20041;-88
2023/05/19 04:09:18;;;;;;;6.65;2.67;;;;;;;8.85;100.00;99039.66;2612499;28;20052;-88
2023/05/19 04:10:33;;;;;;;6.07;2.85;;;;;;;8.82;100.00;99042.28;2615039;28;20075;-88
2023/05/19 04:11:49;;;;;;;4.93;2.95;;;;;;;8.80;100.00;99041.44;2614590;28;20411;-87
2023/05/19 04:13:05;;;;;;;5.68;2.80;;;;;;;8.87;100.00;99042.22;2614554;28;20068;-86
2023/05/19 04:14:20;;;;;;;4.97;2.92;;;;;;;8.89;100.00;99046.56;2615700;28;20462;-86
2023/05/19 04:15:36;;;;;;;5.57;2.92;;;;;;;8.92;100.00;99043.06;2614925;28;20059;-85
2023/05/19 04:16:53;;;;;;;3.65;2.78;;;;;;;9.00;100.00;99045.56;2613499;28;20155;-86
2023/05/19 04:18:08;;;;;;;5.75;3.08;;;;;;;9.03;100.00;99043.78;2616154;28;20509;-85
2023/05/19 04:19:24;;;;;;;4.47;2.63;;;;;;;8.97;100.00;99043.84;2615430;28;20126;-86
2023/05/19 04:20:40;;;;;;;6.43;2.90;;;;;;;9.07;100.00;99039.38;2614219;28;20099;-86
2023/05/19 04:21:55;;;;;;;4.93;2.97;;;;;;;8.99;100.00;99036.00;2614181;28;20048;-86
2023/05/19 04:23:11;;;;;;;4.75;3.20;;;;;;;9.01;100.00;99039.47;2614275;28;20047;-86
2023/05/19 04:24:27;;;;;;;6.47;2.90;;;;;;;9.01;100.00;99035.13;2613548;28;20051;-86
2023/05/19 04:25:42;;;;;;;5.97;3.15;;;;;;;8.97;100.00;99037.78;2615014;28;20047;-86
2023/05/19 04:27:01;;;;;;;5.63;2.70;;;;;;;8.92;100.00;99039.56;2613153;28;20099;-86
2023/05/19 04:28:17;;;;;;;5.72;2.83;;;;;;;8.96;100.00;99041.28;2614584;28;20044;-86
2023/05/19 04:29:34;;;;;;;6.10;2.90;;;;;;;8.99;100.00;99041.22;2615312;28;20041;-86
2023/05/19 04:30:50;;;;;;;5.50;2.92;;;;;;;8.89;100.00;99040.47;2613588;28;20554;-85
2023/05/19 04:32:06;;;;;;;3.72;2.63;;;;;;;8.93;100.00;99038.66;2614752;28;20049;-85
2023/05/19 04:33:22;;;;;;;3.65;2.92;;;;;;;9.03;100.00;99033.34;2612266;28;20550;-86
2023/05/19 04:34:43;;;;;;;4.00;2.70;;;;;;;8.99;100.00;99036.84;2613909;28;20191;-86
2023/05/19 04:36:04;;;;;;;5.13;3.05;;;;;;;9.01;100.00;99040.34;2613692;28;20087;-87
2023/05/19 04:37:19;;;;;;;7.28;2.70;;;;;;;9.00;100.00;99043.81;2615572;28;20443;-87
2023/05/19 04:38:36;;;;;;;5.68;2.70;;;;;;;8.83;100.00;99048.38;2603862;28;20136;-87
2023/05/19 04:39:53;;;;;;;7.68;3.22;;;;;;;8.55;100.00;99053.88;2606309;28;20090;-87
2023/05/19 04:41:09;;;;;;;9.90;3.55;;;;;;;8.70;100.00;99050.25;2612694;28;20124;-86
2023/05/19 04:42:24;;;;;;;5.72;2.97;;;;;;;8.73;100.00;99058.06;2612623;28;20048;-87
2023/05/19 04:43:40;;;;;;;4.85;2.90;;;;;;;8.92;100.00;99050.88;2613278;28;20063;-87
2023/05/19 04:44:56;;;;;;;7.35;3.22;;;;;;;9.02;100.00;99049.03;2604523;28;20045;-87
2023/05/19 04:46:11;;;;;;;5.13;3.10;;;;;;;8.86;100.00;99046.59;2606175;28;20053;-87
2023/05/19 04:47:28;;;;;;;8.00;3.10;;;;;;;8.97;100.00;99038.63;2604356;28;20499;-87
2023/05/19 04:48:44;;;;;;;5.25;3.10;;;;;;;8.93;100.00;99046.50;2607438;28;20041;-87
2023/05/19 04:49:59;;;;;;;4.47;3.13;;;;;;;8.95;100.00;99047.38;2614114;28;20411;-87
2023/05/19 04:51:16;;;;;;;5.40;3.33;;;;;;;8.94;100.00;99048.22;2603866;28;20060;-87
2023/05/19 04:52:32;;;;;;;7.55;3.28;;;;;;;8.92;100.00;99044.78;2607569;28;20526;-87
2023/05/19 04:53:47;;;;;;;6.90;2.85;;;;;;;8.97;100.00;99045.63;2613134;28;20089;-87
2023/05/19 04:55:04;;;;;;;4.65;2.97;;;;;;;8.96;100.00;99039.50;2615086;28;20127;-87
2023/05/19 04:56:19;;;;;;;5.80;3.20;;;;;;;9.02;100.00;99041.19;2615737;28;20423;-87
2023/05/19 04:57:36;;;;;;;8.75;3.00;;;;;;;8.98;100.00;99049.94;2614282;28;20055;-87
2023/05/19 04:58:52;;;;;;;4.60;3.28;;;;;;;9.07;100.00;99048.97;2615088;28;20056;-87
2023/05/19 05:00:11;;;;;;;5.55;3.22;;;;;;;9.12;100.00;99045.44;2614030;28;20052;-87
2023/05/19 05:01:27;;;;;;;3.88;2.83;;;;;;;9.12;100.00;99049.78;2614041;28;20377;-87
2023/05/19 05:02:42;;;;;;;4.85;3.35;;;;;;;9.18;100.00;99047.09;2614240;28;20046;-86
2023/05/19 05:03:58;;;;;;;5.28;3.53;;;;;;;9.12;100.00;99050.66;2613066;28;20056;-86
2023/05/19 05:05:13;;;;;;;9.73;3.53;;;;;;;9.01;100.00;99044.69;2601688;28;20056;-86
2023/05/19 05:06:30;;;;;;;5.57;3.50;;;;;;;9.00;100.00;99043.81;2606330;28;20566;-86
2023/05/19 05:07:46;;;;;;;5.40;3.25;;;;;;;9.14;100.00;99046.25;2613569;28;20083;-87
2023/05/19 05:09:03;;;;;;;6.63;3.75;;;;;;;9.10;100.00;99041.97;2613473;28;20408;-86
2023/05/19 05:10:18;;;;;;;5.22;3.25;;;;;;;9.14;100.00;99043.66;2613144;28;20605;-86
2023/05/19 05:11:34;;;;;;;7.60;3.60;;;;;;;8.94;100.00;99037.78;2614725;28;20060;-87
2023/05/19 05:12:50;;;;;;;6.28;3.80;;;;;;;9.18;100.00;99040.09;2613459;28;20041;-86
2023/05/19 05:14:06;;;;;;;5.75;3.30;;;;;;;9.12;100.00;99034.97;2613724;28;20051;-86
2023/05/19 05:15:23;;;;;;;4.80;3.53;;;;;;;9.30;100.00;99040.84;2614410;28;20052;-86
2023/05/19 05:16:38;;;;;;;5.90;3.92;;;;;;;9.42;100.00;99039.81;2613208;28;20072;-87
2023/05/19 05:17:55;;;;;;;6.70;3.75;;;;;;;9.65;100.00;99041.25;2614422;28;20493;-86
2023/05/19 05:19:10;;;;;;;5.40;3.60;;;;;;;9.76;100.00;99041.94;2613620;28;20616;-86
2023/05/19 05:20:26;;;;;;;6.38;3.42;;;;;;;9.64;100.00;99039.50;2614689;28;20152;-86
2023/05/19 05:21:42;;;;;;;6.72;3.60;;;;;;;9.63;100.00;99032.56;2614026;28;20075;-87
2023/05/19 05:22:58;;;;;;;7.43;3.50;;;;;;;9.58;100.00;99038.72;2613142;28;20044;-87
2023/05/19 05:24:14;;;;;;;6.45;3.95;;;;;;;9.68;100.00;99036.84;2611724;28;20055;-86
2023/05/19 05:25:30;;;;;;;6.05;3.47;;;;;;;9.63;100.00;99029.94;2604563;28;20083;-86
2023/05/19 05:26:46;;;;;;;4.80;3.90;;;;;;;9.75;100.00;99022.75;2606140;28;20045;-87
2023/05/19 05:28:03;;;;;;;7.93;3.90;;;;;;;9.87;100.00;99029.59;2612378;28;20051;-87
2023/05/19 05:29:20;;;;;;;6.50;3.58;;;;;;;9.94;100.00;99019.00;2601950;28;20076;-87
2023/05/19 05:30:35;;;;;;;7.15;4.07;;;;;;;10.01;100.00;99026.72;2606488;28;20037;-87
2023/05/19 05:31:51;;;;;;;7.55;3.80;;;;;;;10.17;100.00;99024.72;2612291;28;20053;-89
2023/05/19 05:33:06;;;;;;;5.97;3.83;;;;;;;10.04;100.00;99025.81;2616363;28;20084;-87
2023/05/19 05:34:22;;;;;;;7.72;4.15;;;;;;;10.22;100.00;99024.66;2616115;28;20424;-87
2023/05/19 05:35:37;;;;;;;4.95;3.60;;;;;;;10.43;100.00;99017.34;2617963;28;20051;-87
2023/05/19 05:36:53;;;;;;;5.97;3.70;;;;;;;10.49;100.00;99014.63;2613863;28;20048;-87
2023/05/19 05:38:10;;;;;;;6.63;3.85;;;;;;;10.65;100.00;99019.56;2614020;28;20049;-87
2023/05/19 05:39:26;;;;;;;7.32;3.78;;;;;;;10.30;100.00;99014.06;2613509;28;20053;-86
2023/05/19 05:40:42;;;;;;;6.45;3.58;;;;;;;10.40;100.00;99009.50;2614144;28;20143;-86
2023/05/19 05:41:57;;;;;;;5.75;3.78;;;;;;;10.60;100.00;99014.41;2614540;28;20036;-86
2023/05/19 05:43:13;;;;;;;7.05;3.25;;;;;;;10.77;100.00;99013.22;2612420;28;20045;-87
2023/05/19 05:44:29;;;;;;;6.88;3.60;;;;;;;10.54;100.00;99015.38;2610736;28;20118;-89
2023/05/19 05:45:45;;;;;;;5.60;3.30;;;;;;;10.45;100.00;99023.41;2613584;28;20522;-87
2023/05/19 05:47:01;;;;;;;6.72;3.17;;;;;;;10.54;100.00;99015.38;2612467;28;20059;-90
2023/05/19 05:48:17;;;;;;;5.85;3.30;;;;;;;10.63;100.00;99023.97;2615518;28;20086;-90
2023/05/19 05:49:36;;;;;;;5.25;3.90;;;;;;;10.81;100.00;99013.13;2613494;28;20492;-90
2023/05/19 05:50:53;;;;;;;7.10;4.07;;;;;;;10.88;100.00;99022.59;2614690;28;20040;-91
2023/05/19 05:52:11;;;;;;;4.47;2.90;;;;;;;10.78;100.00;99021.06;2613615;28;20091;-90
2023/05/19 05:53:29;;;;;;;8.38;3.05;;;;;;;10.92;100.00;99014.69;2614579;28;20045;-90
2023/05/19 05:54:45;;;;;;;8.90;3.53;;;;;;;11.04;100.00;99014.44;2613277;28;20053;-90
2023/05/19 05:56:01;;;;;;;7.78;3.60;;;;;;;11.13;100.00;99018.63;2613737;28;20079;-90
2023/05/19 05:57:17;;;;;;;6.93;3.60;;;;;;;11.21;100.00;99010.59;2613197;28;20049;-90
2023/05/19 05:58:33;;;;;;;7.20;3.78;;;;;;;11.29;100.00;99016.53;2614519;28;20075;-90
2023/05/19 05:59:49;;;;;;;6.30;3.80;;;;;;;11.45;100.00;99024.91;2616090;28;20092;-90
2023/05/19 06:01:09;;;;;;;5.95;3.40;;;;;;;11.25;100.00;99023.59;2615094;28;20051;-90